sensor_id;sensor_type;location;lat;lon;timestamp;P1;durP1;ratioP1;P2;durP2;ratioP2
65033;SDS011;51601;51.356;12.458;2022-08-11T00:00:07;9.13;;;4.20;;
65033;SDS011;51601;51.356;12.458;2022-08-11T00:04:43;7.33;;;4.37;;
65033;SDS011;51601;51.356;12.458;2022-08-11T00:09:19;8.35;;;4.47;;
65033;SDS011;51601;51.356;12.458;2022-08-11T00:14:16;7.80;;;4.43;;
65033;SDS011;51601;51.356;12.458;2022-08-11T00:18:53;9.03;;;4.40;;
65033;SDS011;51601;51.356;12.458;2022-08-11T00:23:28;8.27;;;4.15;;
65033;SDS011;51601;51.356;12.458;2022-08-11T00:28:03;8.98;;;4.40;;
65033;SDS011;51601;51.356;12.458;2022-08-11T00:32:37;7.65;;;4.13;;
65033;SDS011;51601;51.356;12.458;2022-08-11T00:37:17;7.87;;;4.30;;
65033;SDS011;51601;51.356;12.458;2022-08-11T00:41:57;8.07;;;4.32;;
65033;SDS011;51601;51.356;12.458;2022-08-11T00:46:41;7.47;;;4.25;;
65033;SDS011;51601;51.356;12.458;2022-08-11T00:51:32;9.73;;;4.50;;
65033;SDS011;51601;51.356;12.458;2022-08-11T01:02:11;8.70;;;4.90;;
65033;SDS011;51601;51.356;12.458;2022-08-11T01:12:30;9.68;;;5.57;;
65033;SDS011;51601;51.356;12.458;2022-08-11T01:17:46;8.95;;;5.47;;
65033;SDS011;51601;51.356;12.458;2022-08-11T01:28:24;10.33;;;5.70;;
65033;SDS011;51601;51.356;12.458;2022-08-11T01:33:37;10.75;;;5.93;;
65033;SDS011;51601;51.356;12.458;2022-08-11T01:49:01;11.10;;;5.40;;
65033;SDS011;51601;51.356;12.458;2022-08-11T01:54:04;10.90;;;5.85;;
65033;SDS011;51601;51.356;12.458;2022-08-11T01:58:44;9.53;;;5.60;;
65033;SDS011;51601;51.356;12.458;2022-08-11T02:03:33;13.00;;;6.28;;
65033;SDS011;51601;51.356;12.458;2022-08-11T02:08:17;9.98;;;5.85;;
65033;SDS011;51601;51.356;12.458;2022-08-11T02:13:12;11.55;;;6.47;;
65033;SDS011;51601;51.356;12.458;2022-08-11T02:18:20;10.27;;;6.47;;
65033;SDS011;51601;51.356;12.458;2022-08-11T02:23:22;9.60;;;6.35;;
65033;SDS011;51601;51.356;12.458;2022-08-11T02:28:37;10.93;;;6.10;;
65033;SDS011;51601;51.356;12.458;2022-08-11T02:33:23;10.03;;;6.50;;
65033;SDS011;51601;51.356;12.458;2022-08-11T02:38:10;12.43;;;6.07;;
65033;SDS011;51601;51.356;12.458;2022-08-11T02:42:53;9.52;;;6.20;;
65033;SDS011;51601;51.356;12.458;2022-08-11T02:47:41;11.40;;;6.30;;
65033;SDS011;51601;51.356;12.458;2022-08-11T02:52:43;15.98;;;6.28;;
65033;SDS011;51601;51.356;12.458;2022-08-11T02:57:26;8.88;;;5.88;;
65033;SDS011;51601;51.356;12.458;2022-08-11T03:02:05;11.32;;;6.22;;
65033;SDS011;51601;51.356;12.458;2022-08-11T03:06:48;10.23;;;6.40;;
65033;SDS011;51601;51.356;12.458;2022-08-11T03:11:30;12.40;;;6.20;;
65033;SDS011;51601;51.356;12.458;2022-08-11T03:16:36;12.30;;;6.70;;
65033;SDS011;51601;51.356;12.458;2022-08-11T03:21:20;10.97;;;6.40;;
65033;SDS011;51601;51.356;12.458;2022-08-11T03:26:22;14.90;;;6.60;;
65033;SDS011;51601;51.356;12.458;2022-08-11T03:31:13;10.02;;;6.32;;
65033;SDS011;51601;51.356;12.458;2022-08-11T03:36:04;9.20;;;6.37;;
65033;SDS011;51601;51.356;12.458;2022-08-11T03:40:56;11.68;;;6.30;;
65033;SDS011;51601;51.356;12.458;2022-08-11T03:46:19;11.65;;;6.35;;
65033;SDS011;51601;51.356;12.458;2022-08-11T03:51:05;11.02;;;6.95;;
65033;SDS011;51601;51.356;12.458;2022-08-11T03:55:54;11.67;;;7.00;;
65033;SDS011;51601;51.356;12.458;2022-08-11T04:00:46;10.30;;;6.97;;
65033;SDS011;51601;51.356;12.458;2022-08-11T04:16:00;9.38;;;6.45;;
65033;SDS011;51601;51.356;12.458;2022-08-11T04:21:08;11.65;;;6.75;;
65033;SDS011;51601;51.356;12.458;2022-08-11T04:25:58;12.20;;;6.63;;
65033;SDS011;51601;51.356;12.458;2022-08-11T04:30:56;9.77;;;6.57;;
65033;SDS011;51601;51.356;12.458;2022-08-11T04:35:44;12.13;;;6.68;;
65033;SDS011;51601;51.356;12.458;2022-08-11T04:45:34;10.07;;;6.60;;
65033;SDS011;51601;51.356;12.458;2022-08-11T04:50:21;10.60;;;6.47;;
65033;SDS011;51601;51.356;12.458;2022-08-11T04:55:44;10.38;;;6.85;;
65033;SDS011;51601;51.356;12.458;2022-08-11T05:01:05;10.90;;;6.20;;
65033;SDS011;51601;51.356;12.458;2022-08-11T05:16:34;9.40;;;6.07;;
65033;SDS011;51601;51.356;12.458;2022-08-11T05:21:40;9.65;;;6.03;;
65033;SDS011;51601;51.356;12.458;2022-08-11T05:26:37;11.98;;;6.30;;
65033;SDS011;51601;51.356;12.458;2022-08-11T05:31:45;11.70;;;6.15;;
65033;SDS011;51601;51.356;12.458;2022-08-11T05:36:43;9.60;;;5.60;;
65033;SDS011;51601;51.356;12.458;2022-08-11T05:41:21;8.70;;;5.63;;
65033;SDS011;51601;51.356;12.458;2022-08-11T05:46:17;12.20;;;5.70;;
65033;SDS011;51601;51.356;12.458;2022-08-11T05:51:09;12.47;;;5.83;;
65033;SDS011;51601;51.356;12.458;2022-08-11T05:56:04;11.13;;;5.47;;
65033;SDS011;51601;51.356;12.458;2022-08-11T06:00:50;8.77;;;5.30;;
65033;SDS011;51601;51.356;12.458;2022-08-11T06:05:29;13.27;;;5.73;;
65033;SDS011;51601;51.356;12.458;2022-08-11T06:10:23;9.95;;;4.90;;
65033;SDS011;51601;51.356;12.458;2022-08-11T06:15:02;11.05;;;5.43;;
65033;SDS011;51601;51.356;12.458;2022-08-11T06:19:39;8.80;;;4.85;;
65033;SDS011;51601;51.356;12.458;2022-08-11T06:24:14;8.37;;;4.60;;
65033;SDS011;51601;51.356;12.458;2022-08-11T06:28:49;10.65;;;4.95;;
65033;SDS011;51601;51.356;12.458;2022-08-11T06:33:30;9.65;;;4.80;;
65033;SDS011;51601;51.356;12.458;2022-08-11T06:38:08;7.77;;;4.50;;
65033;SDS011;51601;51.356;12.458;2022-08-11T06:42:49;13.43;;;4.57;;
65033;SDS011;51601;51.356;12.458;2022-08-11T06:47:26;9.18;;;4.18;;
65033;SDS011;51601;51.356;12.458;2022-08-11T06:52:03;10.73;;;5.10;;
65033;SDS011;51601;51.356;12.458;2022-08-11T06:56:59;11.43;;;4.22;;
65033;SDS011;51601;51.356;12.458;2022-08-11T07:02:04;8.18;;;4.10;;
65033;SDS011;51601;51.356;12.458;2022-08-11T07:06:47;8.35;;;3.85;;
65033;SDS011;51601;51.356;12.458;2022-08-11T07:12:01;10.57;;;3.90;;
65033;SDS011;51601;51.356;12.458;2022-08-11T07:17:04;9.90;;;4.15;;
65033;SDS011;51601;51.356;12.458;2022-08-11T07:21:43;12.27;;;4.25;;
65033;SDS011;51601;51.356;12.458;2022-08-11T07:26:37;9.53;;;4.00;;
65033;SDS011;51601;51.356;12.458;2022-08-11T07:31:35;11.85;;;3.65;;
65033;SDS011;51601;51.356;12.458;2022-08-11T07:36:14;7.80;;;3.60;;
65033;SDS011;51601;51.356;12.458;2022-08-11T07:40:49;8.43;;;3.30;;
65033;SDS011;51601;51.356;12.458;2022-08-11T07:45:24;8.43;;;3.50;;
65033;SDS011;51601;51.356;12.458;2022-08-11T07:50:19;12.20;;;3.38;;
65033;SDS011;51601;51.356;12.458;2022-08-11T07:55:13;6.38;;;3.28;;
65033;SDS011;51601;51.356;12.458;2022-08-11T07:59:50;9.73;;;3.40;;
65033;SDS011;51601;51.356;12.458;2022-08-11T08:04:44;7.47;;;3.17;;
65033;SDS011;51601;51.356;12.458;2022-08-11T08:09:37;7.05;;;3.00;;
65033;SDS011;51601;51.356;12.458;2022-08-11T08:14:30;8.07;;;3.00;;
65033;SDS011;51601;51.356;12.458;2022-08-11T08:19:23;7.43;;;2.80;;
65033;SDS011;51601;51.356;12.458;2022-08-11T08:23:57;6.80;;;2.88;;
65033;SDS011;51601;51.356;12.458;2022-08-11T08:28:33;7.73;;;3.07;;
65033;SDS011;51601;51.356;12.458;2022-08-11T08:33:08;6.85;;;2.63;;
65033;SDS011;51601;51.356;12.458;2022-08-11T08:37:44;6.95;;;3.00;;
65033;SDS011;51601;51.356;12.458;2022-08-11T08:42:20;8.40;;;3.00;;
65033;SDS011;51601;51.356;12.458;2022-08-11T08:46:58;6.60;;;2.60;;
65033;SDS011;51601;51.356;12.458;2022-08-11T08:51:34;6.35;;;2.60;;
65033;SDS011;51601;51.356;12.458;2022-08-11T08:56:32;6.40;;;2.58;;
65033;SDS011;51601;51.356;12.458;2022-08-11T09:01:08;6.33;;;2.63;;
65033;SDS011;51601;51.356;12.458;2022-08-11T09:05:45;5.93;;;2.60;;
65033;SDS011;51601;51.356;12.458;2022-08-11T09:10:20;7.50;;;2.72;;
65033;SDS011;51601;51.356;12.458;2022-08-11T09:14:57;7.80;;;2.70;;
65033;SDS011;51601;51.356;12.458;2022-08-11T09:19:35;13.80;;;10.30;;
65033;SDS011;51601;51.356;12.458;2022-08-11T09:24:11;9.18;;;3.30;;
65033;SDS011;51601;51.356;12.458;2022-08-11T09:29:03;7.90;;;2.90;;
65033;SDS011;51601;51.356;12.458;2022-08-11T09:33:40;8.00;;;2.87;;
65033;SDS011;51601;51.356;12.458;2022-08-11T09:38:16;7.32;;;2.63;;
65033;SDS011;51601;51.356;12.458;2022-08-11T09:43:10;6.05;;;2.70;;
65033;SDS011;51601;51.356;12.458;2022-08-11T09:48:04;6.70;;;2.93;;
65033;SDS011;51601;51.356;12.458;2022-08-11T09:52:39;6.70;;;2.67;;
65033;SDS011;51601;51.356;12.458;2022-08-11T09:57:34;6.88;;;2.90;;
65033;SDS011;51601;51.356;12.458;2022-08-11T10:02:29;6.33;;;2.63;;
65033;SDS011;51601;51.356;12.458;2022-08-11T10:07:04;6.32;;;2.65;;
65033;SDS011;51601;51.356;12.458;2022-08-11T10:11:41;5.95;;;2.95;;
65033;SDS011;51601;51.356;12.458;2022-08-11T10:16:29;8.45;;;3.03;;
65033;SDS011;51601;51.356;12.458;2022-08-11T10:21:10;6.70;;;2.70;;
65033;SDS011;51601;51.356;12.458;2022-08-11T10:25:46;5.82;;;2.80;;
65033;SDS011;51601;51.356;12.458;2022-08-11T10:30:38;7.15;;;2.75;;
65033;SDS011;51601;51.356;12.458;2022-08-11T10:35:30;6.70;;;2.70;;
65033;SDS011;51601;51.356;12.458;2022-08-11T10:40:07;7.60;;;3.10;;
65033;SDS011;51601;51.356;12.458;2022-08-11T10:44:44;9.02;;;3.33;;
65033;SDS011;51601;51.356;12.458;2022-08-11T10:49:20;8.07;;;3.20;;
65033;SDS011;51601;51.356;12.458;2022-08-11T10:53:55;6.65;;;2.90;;
65033;SDS011;51601;51.356;12.458;2022-08-11T10:58:49;7.75;;;2.85;;
65033;SDS011;51601;51.356;12.458;2022-08-11T11:03:27;7.88;;;3.10;;
65033;SDS011;51601;51.356;12.458;2022-08-11T11:08:04;7.23;;;3.17;;
65033;SDS011;51601;51.356;12.458;2022-08-11T11:13:04;8.15;;;2.80;;
65033;SDS011;51601;51.356;12.458;2022-08-11T11:17:57;6.13;;;2.60;;
65033;SDS011;51601;51.356;12.458;2022-08-11T11:22:37;6.67;;;3.10;;
65033;SDS011;51601;51.356;12.458;2022-08-11T11:27:13;9.25;;;3.05;;
65033;SDS011;51601;51.356;12.458;2022-08-11T11:31:56;6.07;;;2.80;;
65033;SDS011;51601;51.356;12.458;2022-08-11T11:36:45;6.13;;;2.80;;
65033;SDS011;51601;51.356;12.458;2022-08-11T11:41:21;5.10;;;2.58;;
65033;SDS011;51601;51.356;12.458;2022-08-11T11:45:59;7.10;;;2.70;;
65033;SDS011;51601;51.356;12.458;2022-08-11T11:50:34;6.88;;;2.83;;
65033;SDS011;51601;51.356;12.458;2022-08-11T11:55:11;8.23;;;2.90;;
65033;SDS011;51601;51.356;12.458;2022-08-11T11:59:45;7.60;;;2.83;;
65033;SDS011;51601;51.356;12.458;2022-08-11T12:04:40;9.10;;;3.08;;
65033;SDS011;51601;51.356;12.458;2022-08-11T12:09:18;7.37;;;2.50;;
65033;SDS011;51601;51.356;12.458;2022-08-11T12:13:57;8.70;;;2.90;;
65033;SDS011;51601;51.356;12.458;2022-08-11T12:18:41;9.32;;;3.00;;
65033;SDS011;51601;51.356;12.458;2022-08-11T12:23:20;6.43;;;2.80;;
65033;SDS011;51601;51.356;12.458;2022-08-11T12:28:11;6.28;;;3.00;;
65033;SDS011;51601;51.356;12.458;2022-08-11T12:32:47;7.95;;;3.40;;
65033;SDS011;51601;51.356;12.458;2022-08-11T12:37:23;7.97;;;3.40;;
65033;SDS011;51601;51.356;12.458;2022-08-11T12:42:02;8.97;;;3.50;;
65033;SDS011;51601;51.356;12.458;2022-08-11T12:46:55;7.85;;;3.00;;
65033;SDS011;51601;51.356;12.458;2022-08-11T12:51:34;7.45;;;3.40;;
65033;SDS011;51601;51.356;12.458;2022-08-11T12:56:47;6.43;;;3.10;;
65033;SDS011;51601;51.356;12.458;2022-08-11T13:01:45;6.60;;;3.20;;
65033;SDS011;51601;51.356;12.458;2022-08-11T13:06:38;6.32;;;3.17;;
65033;SDS011;51601;51.356;12.458;2022-08-11T13:11:15;7.33;;;3.07;;
65033;SDS011;51601;51.356;12.458;2022-08-11T13:16:28;9.23;;;3.20;;
65033;SDS011;51601;51.356;12.458;2022-08-11T13:21:24;7.88;;;3.25;;
65033;SDS011;51601;51.356;12.458;2022-08-11T13:26:01;9.68;;;3.60;;
65033;SDS011;51601;51.356;12.458;2022-08-11T13:30:36;8.13;;;3.40;;
65033;SDS011;51601;51.356;12.458;2022-08-11T13:35:28;8.38;;;3.85;;
65033;SDS011;51601;51.356;12.458;2022-08-11T13:40:04;7.93;;;3.20;;
65033;SDS011;51601;51.356;12.458;2022-08-11T13:44:41;11.30;;;3.70;;
65033;SDS011;51601;51.356;12.458;2022-08-11T13:49:15;6.63;;;3.70;;
65033;SDS011;51601;51.356;12.458;2022-08-11T13:53:51;6.75;;;3.83;;
65033;SDS011;51601;51.356;12.458;2022-08-11T13:58:33;7.00;;;3.40;;
65033;SDS011;51601;51.356;12.458;2022-08-11T14:03:13;6.65;;;3.67;;
65033;SDS011;51601;51.356;12.458;2022-08-11T14:07:50;7.45;;;3.38;;
65033;SDS011;51601;51.356;12.458;2022-08-11T14:12:26;7.38;;;3.30;;
65033;SDS011;51601;51.356;12.458;2022-08-11T14:23:51;6.50;;;3.30;;
65033;SDS011;51601;51.356;12.458;2022-08-11T14:28:32;8.82;;;3.85;;
65033;SDS011;51601;51.356;12.458;2022-08-11T14:33:15;7.93;;;3.30;;
65033;SDS011;51601;51.356;12.458;2022-08-11T14:37:52;7.68;;;3.38;;
65033;SDS011;51601;51.356;12.458;2022-08-11T14:42:29;8.57;;;3.40;;
65033;SDS011;51601;51.356;12.458;2022-08-11T14:47:21;6.17;;;3.13;;
65033;SDS011;51601;51.356;12.458;2022-08-11T14:51:56;6.13;;;3.20;;
65033;SDS011;51601;51.356;12.458;2022-08-11T14:56:31;7.13;;;3.17;;
65033;SDS011;51601;51.356;12.458;2022-08-11T15:01:10;6.85;;;3.38;;
65033;SDS011;51601;51.356;12.458;2022-08-11T15:05:59;6.63;;;3.30;;
65033;SDS011;51601;51.356;12.458;2022-08-11T15:10:36;6.93;;;3.15;;
65033;SDS011;51601;51.356;12.458;2022-08-11T15:15:10;7.88;;;3.22;;
65033;SDS011;51601;51.356;12.458;2022-08-11T15:20:05;8.53;;;3.10;;
65033;SDS011;51601;51.356;12.458;2022-08-11T15:25:01;8.10;;;3.40;;
65033;SDS011;51601;51.356;12.458;2022-08-11T15:29:36;9.25;;;3.45;;
65033;SDS011;51601;51.356;12.458;2022-08-11T15:34:31;7.97;;;3.60;;
65033;SDS011;51601;51.356;12.458;2022-08-11T15:39:26;9.18;;;3.10;;
65033;SDS011;51601;51.356;12.458;2022-08-11T15:44:05;6.40;;;2.83;;
65033;SDS011;51601;51.356;12.458;2022-08-11T15:49:21;7.88;;;3.22;;
65033;SDS011;51601;51.356;12.458;2022-08-11T15:54:22;6.47;;;3.30;;
65033;SDS011;51601;51.356;12.458;2022-08-11T15:59:01;6.10;;;3.30;;
65033;SDS011;51601;51.356;12.458;2022-08-11T16:04:15;6.80;;;2.90;;
65033;SDS011;51601;51.356;12.458;2022-08-11T16:08:51;8.03;;;3.57;;
65033;SDS011;51601;51.356;12.458;2022-08-11T16:13:27;8.25;;;3.00;;
65033;SDS011;51601;51.356;12.458;2022-08-11T16:18:24;8.05;;;2.97;;
65033;SDS011;51601;51.356;12.458;2022-08-11T16:23:11;9.17;;;3.97;;
65033;SDS011;51601;51.356;12.458;2022-08-11T16:27:48;7.35;;;3.08;;
65033;SDS011;51601;51.356;12.458;2022-08-11T16:32:24;9.50;;;3.80;;
65033;SDS011;51601;51.356;12.458;2022-08-11T16:37:00;8.40;;;3.08;;
65033;SDS011;51601;51.356;12.458;2022-08-11T16:41:51;6.87;;;3.00;;
65033;SDS011;51601;51.356;12.458;2022-08-11T16:47:02;8.35;;;3.50;;
65033;SDS011;51601;51.356;12.458;2022-08-11T16:51:38;8.48;;;3.40;;
65033;SDS011;51601;51.356;12.458;2022-08-11T16:56:15;7.03;;;3.40;;
65033;SDS011;51601;51.356;12.458;2022-08-11T17:00:53;5.63;;;2.58;;
65033;SDS011;51601;51.356;12.458;2022-08-11T17:05:30;10.77;;;2.97;;
65033;SDS011;51601;51.356;12.458;2022-08-11T17:10:26;6.80;;;2.83;;
65033;SDS011;51601;51.356;12.458;2022-08-11T17:15:26;6.43;;;2.60;;
65033;SDS011;51601;51.356;12.458;2022-08-11T17:20:22;7.00;;;2.60;;
65033;SDS011;51601;51.356;12.458;2022-08-11T17:25:15;5.60;;;2.25;;
65033;SDS011;51601;51.356;12.458;2022-08-11T17:29:51;8.17;;;2.50;;
65033;SDS011;51601;51.356;12.458;2022-08-11T17:34:30;6.93;;;2.40;;
65033;SDS011;51601;51.356;12.458;2022-08-11T17:39:23;7.63;;;2.30;;
65033;SDS011;51601;51.356;12.458;2022-08-11T17:44:01;6.93;;;2.30;;
65033;SDS011;51601;51.356;12.458;2022-08-11T17:48:54;5.32;;;1.98;;
65033;SDS011;51601;51.356;12.458;2022-08-11T17:53:31;6.60;;;2.20;;
65033;SDS011;51601;51.356;12.458;2022-08-11T17:58:46;5.00;;;2.13;;
65033;SDS011;51601;51.356;12.458;2022-08-11T18:03:40;7.07;;;2.00;;
65033;SDS011;51601;51.356;12.458;2022-08-11T18:08:30;5.40;;;2.15;;
65033;SDS011;51601;51.356;12.458;2022-08-11T18:13:26;6.15;;;2.10;;
65033;SDS011;51601;51.356;12.458;2022-08-11T18:18:20;7.23;;;1.93;;
65033;SDS011;51601;51.356;12.458;2022-08-11T18:23:13;5.03;;;1.92;;
65033;SDS011;51601;51.356;12.458;2022-08-11T18:28:20;5.70;;;1.90;;
65033;SDS011;51601;51.356;12.458;2022-08-11T18:33:16;8.93;;;2.10;;
65033;SDS011;51601;51.356;12.458;2022-08-11T18:38:31;6.95;;;2.17;;
65033;SDS011;51601;51.356;12.458;2022-08-11T18:43:25;6.60;;;2.10;;
65033;SDS011;51601;51.356;12.458;2022-08-11T18:48:19;5.63;;;2.37;;
65033;SDS011;51601;51.356;12.458;2022-08-11T18:53:13;6.82;;;2.38;;
65033;SDS011;51601;51.356;12.458;2022-08-11T18:58:07;9.32;;;2.70;;
65033;SDS011;51601;51.356;12.458;2022-08-11T19:03:03;7.28;;;2.35;;
65033;SDS011;51601;51.356;12.458;2022-08-11T19:07:57;7.60;;;2.80;;
65033;SDS011;51601;51.356;12.458;2022-08-11T19:12:50;7.35;;;2.72;;
65033;SDS011;51601;51.356;12.458;2022-08-11T19:17:43;6.00;;;2.60;;
65033;SDS011;51601;51.356;12.458;2022-08-11T19:22:38;7.83;;;2.70;;
65033;SDS011;51601;51.356;12.458;2022-08-11T19:27:29;6.15;;;2.35;;
65033;SDS011;51601;51.356;12.458;2022-08-11T19:32:23;7.72;;;2.78;;
65033;SDS011;51601;51.356;12.458;2022-08-11T19:37:15;6.90;;;2.47;;
65033;SDS011;51601;51.356;12.458;2022-08-11T19:42:17;6.45;;;2.53;;
65033;SDS011;51601;51.356;12.458;2022-08-11T19:47:09;18.08;;;2.60;;
65033;SDS011;51601;51.356;12.458;2022-08-11T19:52:02;9.55;;;2.65;;
65033;SDS011;51601;51.356;12.458;2022-08-11T19:56:55;7.23;;;2.30;;
65033;SDS011;51601;51.356;12.458;2022-08-11T20:01:49;5.90;;;2.10;;
65033;SDS011;51601;51.356;12.458;2022-08-11T20:06:45;6.03;;;2.05;;
65033;SDS011;51601;51.356;12.458;2022-08-11T20:11:40;5.60;;;2.20;;
65033;SDS011;51601;51.356;12.458;2022-08-11T20:16:34;6.20;;;2.10;;
65033;SDS011;51601;51.356;12.458;2022-08-11T20:21:28;6.03;;;2.03;;
65033;SDS011;51601;51.356;12.458;2022-08-11T20:26:20;5.83;;;2.20;;
65033;SDS011;51601;51.356;12.458;2022-08-11T20:31:12;6.75;;;2.85;;
65033;SDS011;51601;51.356;12.458;2022-08-11T20:36:05;7.60;;;2.72;;
65033;SDS011;51601;51.356;12.458;2022-08-11T20:40:59;8.55;;;2.53;;
65033;SDS011;51601;51.356;12.458;2022-08-11T20:45:52;6.50;;;2.50;;
65033;SDS011;51601;51.356;12.458;2022-08-11T20:50:45;6.75;;;2.38;;
65033;SDS011;51601;51.356;12.458;2022-08-11T20:55:38;5.95;;;2.30;;
65033;SDS011;51601;51.356;12.458;2022-08-11T21:00:39;12.10;;;2.80;;
65033;SDS011;51601;51.356;12.458;2022-08-11T21:05:33;8.80;;;2.50;;
65033;SDS011;51601;51.356;12.458;2022-08-11T21:10:40;7.22;;;2.63;;
65033;SDS011;51601;51.356;12.458;2022-08-11T21:15:37;7.13;;;2.50;;
65033;SDS011;51601;51.356;12.458;2022-08-11T21:20:35;6.40;;;2.58;;
65033;SDS011;51601;51.356;12.458;2022-08-11T21:25:32;7.60;;;2.30;;
65033;SDS011;51601;51.356;12.458;2022-08-11T21:30:30;5.93;;;2.50;;
65033;SDS011;51601;51.356;12.458;2022-08-11T21:35:30;7.53;;;2.40;;
65033;SDS011;51601;51.356;12.458;2022-08-11T21:40:23;7.80;;;2.50;;
65033;SDS011;51601;51.356;12.458;2022-08-11T21:45:15;6.93;;;2.60;;
65033;SDS011;51601;51.356;12.458;2022-08-11T21:50:08;8.67;;;2.97;;
65033;SDS011;51601;51.356;12.458;2022-08-11T21:55:02;6.63;;;2.50;;
65033;SDS011;51601;51.356;12.458;2022-08-11T21:59:54;5.30;;;2.50;;
65033;SDS011;51601;51.356;12.458;2022-08-11T22:04:48;5.67;;;2.37;;
65033;SDS011;51601;51.356;12.458;2022-08-11T22:09:43;7.40;;;2.60;;
65033;SDS011;51601;51.356;12.458;2022-08-11T22:14:57;8.07;;;2.40;;
65033;SDS011;51601;51.356;12.458;2022-08-11T22:19:49;6.18;;;2.63;;
65033;SDS011;51601;51.356;12.458;2022-08-11T22:24:41;9.13;;;2.77;;
65033;SDS011;51601;51.356;12.458;2022-08-11T22:29:47;6.32;;;2.60;;
65033;SDS011;51601;51.356;12.458;2022-08-11T22:34:41;6.78;;;2.22;;
65033;SDS011;51601;51.356;12.458;2022-08-11T22:39:33;6.97;;;3.00;;
65033;SDS011;51601;51.356;12.458;2022-08-11T22:44:34;6.97;;;3.08;;
65033;SDS011;51601;51.356;12.458;2022-08-11T22:49:27;6.95;;;3.20;;
65033;SDS011;51601;51.356;12.458;2022-08-11T22:54:30;8.07;;;3.40;;
65033;SDS011;51601;51.356;12.458;2022-08-11T22:59:23;6.50;;;2.95;;
65033;SDS011;51601;51.356;12.458;2022-08-11T23:04:16;7.93;;;3.40;;
65033;SDS011;51601;51.356;12.458;2022-08-11T23:09:09;8.07;;;3.28;;
65033;SDS011;51601;51.356;12.458;2022-08-11T23:14:03;8.40;;;2.97;;
65033;SDS011;51601;51.356;12.458;2022-08-11T23:19:01;7.07;;;3.25;;
65033;SDS011;51601;51.356;12.458;2022-08-11T23:24:13;8.88;;;3.13;;
65033;SDS011;51601;51.356;12.458;2022-08-11T23:29:07;9.33;;;3.10;;
65033;SDS011;51601;51.356;12.458;2022-08-11T23:34:00;8.60;;;3.08;;
65033;SDS011;51601;51.356;12.458;2022-08-11T23:39:13;7.45;;;2.88;;
65033;SDS011;51601;51.356;12.458;2022-08-11T23:44:07;6.70;;;2.97;;
65033;SDS011;51601;51.356;12.458;2022-08-11T23:49:00;7.47;;;3.05;;
65033;SDS011;51601;51.356;12.458;2022-08-11T23:53:53;7.72;;;2.90;;
65033;SDS011;51601;51.356;12.458;2022-08-11T23:58:45;7.57;;;2.90;;
